createdAt,value
2022-12-17T00:02:50.948Z,3.12
2022-12-17T00:05:54.907Z,3.88
2022-12-17T00:09:00.657Z,4.22
2022-12-17T00:12:04.680Z,4.22
2022-12-17T00:15:08.741Z,4.13
2022-12-17T00:18:12.960Z,4.09
2022-12-17T00:21:16.917Z,4.26
2022-12-17T00:24:20.961Z,3.78
2022-12-17T00:27:24.800Z,3.01
2022-12-17T00:30:28.968Z,3.40
2022-12-17T00:33:33.407Z,3.90
2022-12-17T00:36:37.816Z,3.89
2022-12-17T00:39:41.675Z,4.12
2022-12-17T00:42:45.666Z,4.42
2022-12-17T00:45:49.772Z,4.06
2022-12-17T00:48:53.778Z,4.01
2022-12-17T00:51:57.753Z,3.98
2022-12-17T00:55:02.009Z,3.88
2022-12-17T00:58:05.977Z,3.65
2022-12-17T01:01:10.127Z,3.48
2022-12-17T01:04:14.001Z,3.38
2022-12-17T01:07:17.883Z,3.62
2022-12-17T01:10:21.731Z,3.12
2022-12-17T01:13:25.548Z,2.77
2022-12-17T01:16:29.724Z,3.23
2022-12-17T01:19:33.637Z,3.02
2022-12-17T01:22:37.540Z,3.33
2022-12-17T01:25:41.540Z,3.28
2022-12-17T01:28:45.539Z,3.93
2022-12-17T01:31:49.437Z,4.13
2022-12-17T01:34:53.300Z,4.12
2022-12-17T01:37:57.328Z,4.05
2022-12-17T01:41:01.584Z,3.91
2022-12-17T01:44:05.736Z,3.28
2022-12-17T01:47:09.724Z,3.40
2022-12-17T01:50:13.689Z,3.35
2022-12-17T01:53:17.777Z,3.19
2022-12-17T01:56:21.801Z,2.96
2022-12-17T01:59:25.840Z,3.28
2022-12-17T02:02:29.927Z,3.05
2022-12-17T02:05:33.810Z,3.29
2022-12-17T02:08:37.843Z,3.36
2022-12-17T02:11:42.095Z,3.54
2022-12-17T02:14:46.102Z,3.71
2022-12-17T02:17:49.933Z,3.04
2022-12-17T02:20:54.001Z,3.31
2022-12-17T02:23:57.916Z,2.83
2022-12-17T02:27:02.100Z,3.54
2022-12-17T02:30:05.958Z,3.19
2022-12-17T02:33:09.848Z,3.13
2022-12-17T02:36:13.928Z,2.46
2022-12-17T02:39:18.092Z,2.54
2022-12-17T02:42:22.068Z,2.44
2022-12-17T02:45:25.918Z,2.49
2022-12-17T02:48:30.056Z,3.23
2022-12-17T02:51:34.173Z,2.83
2022-12-17T02:54:38.247Z,2.54
2022-12-17T02:57:43.985Z,2.66
2022-12-17T03:00:48.658Z,3.16
2022-12-17T03:03:52.647Z,3.14
2022-12-17T03:06:56.649Z,3.22
2022-12-17T03:10:00.551Z,3.35
2022-12-17T03:13:04.466Z,2.88
2022-12-17T03:16:08.463Z,2.93
2022-12-17T03:19:12.510Z,2.83
2022-12-17T03:22:16.664Z,2.78
2022-12-17T03:25:20.588Z,3.09
2022-12-17T03:28:24.402Z,2.37
2022-12-17T03:31:28.416Z,1.94
2022-12-17T03:34:32.471Z,1.58
2022-12-17T03:37:36.558Z,1.99
2022-12-17T03:40:40.431Z,2.45
2022-12-17T03:43:44.203Z,2.53
2022-12-17T03:46:48.046Z,2.46
2022-12-17T03:49:52.055Z,1.49
2022-12-17T03:52:55.984Z,1.52
2022-12-17T03:55:59.882Z,1.85
2022-12-17T03:59:03.838Z,1.86
2022-12-17T04:02:07.951Z,2.06
2022-12-17T04:05:18.183Z,1.87
2022-12-17T04:08:24.074Z,2.03
2022-12-17T04:11:28.128Z,2.09
2022-12-17T04:14:32.103Z,2.25
2022-12-17T04:17:35.956Z,2.35
2022-12-17T04:20:39.979Z,2.00
2022-12-17T04:23:43.985Z,2.09
2022-12-17T04:26:48.051Z,2.16
2022-12-17T04:29:52.063Z,2.35
2022-12-17T04:32:55.799Z,1.74
2022-12-17T04:35:59.950Z,2.01
2022-12-17T04:39:04.082Z,2.35
2022-12-17T04:42:08.061Z,2.70
2022-12-17T04:45:11.963Z,2.58
2022-12-17T04:48:16.034Z,2.22
2022-12-17T04:51:20.216Z,2.40
2022-12-17T04:54:24.203Z,1.90
2022-12-17T04:57:28.087Z,2.31
2022-12-17T05:00:32.138Z,2.34
2022-12-17T05:03:36.580Z,2.24
2022-12-17T05:06:40.694Z,2.26
2022-12-17T05:09:44.816Z,2.09
2022-12-17T05:12:48.450Z,2.64
2022-12-17T05:15:53.456Z,2.75
2022-12-17T05:18:57.628Z,2.69
2022-12-17T05:22:01.699Z,2.84
2022-12-17T05:25:05.626Z,3.06
2022-12-17T05:28:09.576Z,2.42
2022-12-17T05:31:14.166Z,2.56
2022-12-17T05:34:18.206Z,2.26
2022-12-17T05:37:22.497Z,2.46
2022-12-17T05:40:26.442Z,2.53
2022-12-17T05:43:30.383Z,2.48
2022-12-17T05:46:34.423Z,2.71
2022-12-17T05:49:38.400Z,2.49
2022-12-17T05:52:42.414Z,2.82
2022-12-17T05:55:46.444Z,3.15
2022-12-17T05:58:50.409Z,2.22
2022-12-17T06:01:54.578Z,1.80
2022-12-17T06:05:02.131Z,2.45
2022-12-17T06:08:06.355Z,2.20
2022-12-17T06:11:10.254Z,3.07
2022-12-17T06:14:14.292Z,3.22
2022-12-17T06:17:18.326Z,2.81
2022-12-17T06:20:22.439Z,3.03
2022-12-17T06:23:26.326Z,3.28
2022-12-17T06:26:30.151Z,2.64
2022-12-17T06:29:34.105Z,2.56
2022-12-17T06:32:38.181Z,2.81
2022-12-17T06:35:42.317Z,2.79
2022-12-17T06:38:46.325Z,3.04
2022-12-17T06:41:50.187Z,3.10
2022-12-17T06:44:54.390Z,2.80
2022-12-17T06:47:58.430Z,3.04
2022-12-17T06:51:02.622Z,3.18
2022-12-17T06:54:06.530Z,2.86
2022-12-17T06:57:10.429Z,2.90
2022-12-17T07:00:14.567Z,3.15
2022-12-17T07:03:18.914Z,2.77
2022-12-17T07:06:23.020Z,2.67
2022-12-17T07:09:27.069Z,2.82
2022-12-17T07:12:31.221Z,2.76
2022-12-17T07:15:36.304Z,2.60
2022-12-17T07:18:40.024Z,2.75
2022-12-17T07:21:44.248Z,2.19
2022-12-17T07:24:48.252Z,2.09
2022-12-17T07:27:52.247Z,2.31
2022-12-17T07:30:56.228Z,2.18
2022-12-17T07:34:00.258Z,2.15
2022-12-17T07:37:04.217Z,2.52
2022-12-17T07:40:08.285Z,2.62
2022-12-17T07:43:12.412Z,2.76
2022-12-17T07:46:16.620Z,2.78
2022-12-17T07:49:25.506Z,2.91
2022-12-17T07:52:30.253Z,2.79
2022-12-17T07:55:34.290Z,2.81
2022-12-17T07:58:38.357Z,3.05
2022-12-17T08:01:42.359Z,3.34
2022-12-17T08:04:46.428Z,2.60
2022-12-17T08:07:50.411Z,3.17
2022-12-17T08:10:54.171Z,3.15
2022-12-17T08:13:58.184Z,3.23
2022-12-17T08:17:02.329Z,3.25
2022-12-17T08:20:06.412Z,3.46
2022-12-17T08:23:10.263Z,3.40
2022-12-17T08:26:14.179Z,3.37
2022-12-17T08:29:18.335Z,2.91
2022-12-17T08:32:22.435Z,3.22
2022-12-17T08:35:26.418Z,3.40
2022-12-17T08:38:30.193Z,3.24
2022-12-17T08:41:34.211Z,3.11
2022-12-17T08:44:38.456Z,3.04
2022-12-17T08:47:42.364Z,3.15
2022-12-17T08:50:46.572Z,3.85
2022-12-17T08:53:50.462Z,3.68
2022-12-17T08:56:54.739Z,4.09
2022-12-17T09:00:01.302Z,4.15
2022-12-17T09:03:05.638Z,4.32
2022-12-17T09:06:09.324Z,3.79
2022-12-17T09:09:13.315Z,3.89
2022-12-17T09:12:17.418Z,4.52
2022-12-17T09:15:21.600Z,4.73
2022-12-17T09:18:25.643Z,4.83
2022-12-17T09:21:29.574Z,4.13
2022-12-17T09:24:33.800Z,3.93
2022-12-17T09:27:37.882Z,3.78
2022-12-17T09:30:41.986Z,4.29
2022-12-17T09:33:45.847Z,4.43
2022-12-17T09:36:51.461Z,4.01
2022-12-17T09:39:56.600Z,3.45
2022-12-17T09:43:00.434Z,4.11
2022-12-17T09:46:04.535Z,2.71
2022-12-17T09:49:08.587Z,3.14
2022-12-17T09:52:12.532Z,3.46
2022-12-17T09:55:16.588Z,3.43
2022-12-17T09:58:20.771Z,4.24
2022-12-17T10:01:24.966Z,4.31
2022-12-17T10:04:28.792Z,3.89
2022-12-17T10:07:33.049Z,3.85
2022-12-17T10:10:37.061Z,3.44
2022-12-17T10:13:41.162Z,3.73
2022-12-17T10:16:45.191Z,4.14
2022-12-17T10:19:49.363Z,3.95
2022-12-17T10:22:53.331Z,3.60
2022-12-17T10:25:57.701Z,3.39
2022-12-17T10:29:01.719Z,3.13
2022-12-17T10:32:05.535Z,2.77
2022-12-17T10:35:09.575Z,2.97
2022-12-17T10:38:13.770Z,2.89
2022-12-17T10:41:18.083Z,3.52
2022-12-17T10:44:22.130Z,3.52
2022-12-17T10:47:26.078Z,3.49
2022-12-17T10:50:29.922Z,3.43
2022-12-17T10:53:34.456Z,4.18
2022-12-17T10:56:38.553Z,4.03
2022-12-17T10:59:42.539Z,4.16
2022-12-17T11:02:46.850Z,4.44
2022-12-17T11:05:54.950Z,4.04
2022-12-17T11:09:03.173Z,3.55
2022-12-17T11:12:07.528Z,3.75
2022-12-17T11:15:11.655Z,3.65
2022-12-17T11:18:15.762Z,4.26
2022-12-17T11:21:20.003Z,4.28
2022-12-17T11:24:23.937Z,4.76
2022-12-17T11:27:28.067Z,4.34
2022-12-17T11:30:32.312Z,4.76
2022-12-17T11:33:36.768Z,4.78
2022-12-17T11:36:40.823Z,4.81
2022-12-17T11:39:44.802Z,4.51
2022-12-17T11:42:48.968Z,4.32
2022-12-17T11:45:53.027Z,4.59
2022-12-17T11:48:57.169Z,4.00
2022-12-17T11:52:01.054Z,3.88
2022-12-17T11:55:05.170Z,4.14
2022-12-17T11:58:09.503Z,4.19
2022-12-17T12:01:13.346Z,4.73
2022-12-17T12:04:17.440Z,5.28
2022-12-17T12:07:21.152Z,4.73
2022-12-17T12:10:25.133Z,3.83
2022-12-17T12:13:29.134Z,4.31
2022-12-17T12:16:33.271Z,4.54
2022-12-17T12:19:38.085Z,4.64
2022-12-17T12:22:42.271Z,4.81
2022-12-17T12:25:46.553Z,4.93
2022-12-17T12:28:50.713Z,5.05
2022-12-17T12:31:54.687Z,5.23
2022-12-17T12:34:58.747Z,5.50
2022-12-17T12:38:02.614Z,5.57
2022-12-17T12:41:06.589Z,5.36
2022-12-17T12:44:10.691Z,5.19
2022-12-17T12:47:14.547Z,5.10
2022-12-17T12:50:18.717Z,4.48
2022-12-17T12:53:22.733Z,4.72
2022-12-17T12:56:26.911Z,5.06
2022-12-17T12:59:30.682Z,5.00
2022-12-17T13:02:34.716Z,4.95
2022-12-17T13:05:38.654Z,4.86
2022-12-17T13:08:42.963Z,5.10
2022-12-17T13:11:46.944Z,5.06
2022-12-17T13:14:51.026Z,5.21
2022-12-17T13:17:54.954Z,5.26
2022-12-17T13:20:58.946Z,4.79
2022-12-17T13:24:02.874Z,5.12
2022-12-17T13:27:06.937Z,4.82
2022-12-17T13:30:11.262Z,4.76
2022-12-17T13:33:15.557Z,5.09
2022-12-17T13:36:19.599Z,5.26
2022-12-17T13:39:24.043Z,4.94
2022-12-17T13:42:28.235Z,4.62
2022-12-17T13:45:32.055Z,5.09
2022-12-17T13:48:36.639Z,5.50
2022-12-17T13:51:41.015Z,5.45
2022-12-17T13:54:44.978Z,5.11
2022-12-17T13:57:51.450Z,5.06
2022-12-17T14:00:55.414Z,5.14
2022-12-17T14:04:07.699Z,5.11
2022-12-17T14:07:11.694Z,5.55
2022-12-17T14:10:15.691Z,5.21
2022-12-17T14:13:19.809Z,5.43
2022-12-17T14:16:24.072Z,5.03
2022-12-17T14:19:28.017Z,4.97
2022-12-17T14:22:31.723Z,4.68
2022-12-17T14:25:35.652Z,5.19
2022-12-17T14:28:40.375Z,5.00
2022-12-17T14:31:44.419Z,4.58
2022-12-17T14:34:48.233Z,4.95
2022-12-17T14:37:52.486Z,4.32
2022-12-17T14:40:56.909Z,4.71
2022-12-17T14:44:01.164Z,4.69
2022-12-17T14:47:05.324Z,4.94
2022-12-17T14:50:09.394Z,4.83
2022-12-17T14:53:13.179Z,4.93
2022-12-17T14:56:17.497Z,4.86
2022-12-17T14:59:22.633Z,4.40
2022-12-17T15:02:27.031Z,4.52
2022-12-17T15:05:30.788Z,4.76
2022-12-17T15:08:35.059Z,4.93
2022-12-17T15:11:39.388Z,4.98
2022-12-17T15:14:43.572Z,4.59
2022-12-17T15:17:47.552Z,4.78
2022-12-17T15:20:51.395Z,4.54
2022-12-17T15:23:55.319Z,4.76
2022-12-17T15:26:59.485Z,4.40
2022-12-17T15:30:03.641Z,4.25
2022-12-17T15:33:07.706Z,4.67
2022-12-17T15:36:11.327Z,4.62
2022-12-17T15:39:15.558Z,4.76
2022-12-17T15:42:19.895Z,4.96
2022-12-17T15:45:24.020Z,4.31
2022-12-17T15:48:28.118Z,4.86
2022-12-17T15:51:31.823Z,4.71
2022-12-17T15:54:35.924Z,5.17
2022-12-17T15:57:40.828Z,5.15
2022-12-17T16:00:44.747Z,5.35
2022-12-17T16:03:48.723Z,5.35
2022-12-17T16:06:52.570Z,5.34
2022-12-17T16:10:01.636Z,4.94
2022-12-17T16:13:08.488Z,4.96
2022-12-17T16:16:12.652Z,5.31
2022-12-17T16:19:16.976Z,5.05
2022-12-17T16:22:20.743Z,5.37
2022-12-17T16:25:24.551Z,5.21
2022-12-17T16:28:28.673Z,4.86
2022-12-17T16:31:32.775Z,5.30
2022-12-17T16:34:36.799Z,5.40
2022-12-17T16:37:40.722Z,5.31
2022-12-17T16:40:44.842Z,4.84
2022-12-17T16:43:48.891Z,4.59
2022-12-17T16:46:53.064Z,4.69
2022-12-17T16:49:57.053Z,4.55
2022-12-17T16:53:00.942Z,4.60
2022-12-17T16:56:04.771Z,4.82
2022-12-17T16:59:08.940Z,4.62
2022-12-17T17:02:13.032Z,4.67
2022-12-17T17:05:16.907Z,4.01
2022-12-17T17:08:20.887Z,4.39
2022-12-17T17:11:25.097Z,4.54
2022-12-17T17:14:29.133Z,4.47
2022-12-17T17:17:56.075Z,4.86
2022-12-17T17:20:56.644Z,4.46
2022-12-17T17:24:00.524Z,4.38
2022-12-17T17:27:04.527Z,4.98
2022-12-17T17:30:08.474Z,4.76
2022-12-17T17:33:12.481Z,3.96
2022-12-17T17:36:16.516Z,4.60
2022-12-17T17:39:20.096Z,4.66
2022-12-17T17:42:24.183Z,4.64
2022-12-17T17:45:28.299Z,4.87
2022-12-17T17:48:32.443Z,4.82
2022-12-17T17:52:07.811Z,5.42
2022-12-17T17:55:00.115Z,4.92
2022-12-17T17:58:03.803Z,4.80
2022-12-17T18:01:07.988Z,5.08
2022-12-17T18:04:12.126Z,4.80
2022-12-17T18:07:25.328Z,5.11
2022-12-17T18:10:30.434Z,5.52
2022-12-17T18:13:34.367Z,5.14
2022-12-17T18:16:38.632Z,5.44
2022-12-17T18:19:42.391Z,5.16
2022-12-17T18:22:46.482Z,5.05
2022-12-17T18:25:51.144Z,4.72
2022-12-17T18:28:55.311Z,5.11
2022-12-17T18:31:59.105Z,5.17
2022-12-17T18:35:02.890Z,5.38
2022-12-17T18:38:07.022Z,5.35
2022-12-17T18:41:11.162Z,5.43
2022-12-17T18:44:15.178Z,5.15
2022-12-17T18:47:19.155Z,5.50
2022-12-17T18:50:23.335Z,5.35
2022-12-17T18:53:27.491Z,5.17
2022-12-17T18:56:59.879Z,5.64
2022-12-17T18:59:55.558Z,5.62
2022-12-17T19:02:59.450Z,5.44
2022-12-17T19:06:03.175Z,5.47
2022-12-17T19:09:07.040Z,4.90
2022-12-17T19:12:11.130Z,5.14
2022-12-17T19:15:15.117Z,5.10
2022-12-17T19:18:19.121Z,5.23
2022-12-17T19:21:23.275Z,5.09
2022-12-17T19:24:27.162Z,4.69
2022-12-17T19:27:31.326Z,4.89
2022-12-17T19:30:35.214Z,5.06
2022-12-17T19:33:39.218Z,4.51
2022-12-17T19:36:42.953Z,4.39
2022-12-17T19:39:47.019Z,4.14
2022-12-17T19:42:50.897Z,4.16
2022-12-17T19:45:54.830Z,4.87
2022-12-17T19:48:58.788Z,4.64
2022-12-17T19:52:02.953Z,4.79
2022-12-17T19:55:06.963Z,5.36
2022-12-17T19:58:10.740Z,5.36
2022-12-17T20:01:14.847Z,5.38
2022-12-17T20:04:18.831Z,5.63
2022-12-17T20:07:22.846Z,5.65
2022-12-17T20:10:26.937Z,5.70
2022-12-17T20:13:30.891Z,5.58
2022-12-17T20:16:35.064Z,5.54
2022-12-17T20:19:39.136Z,5.60
2022-12-17T20:22:43.291Z,5.77
2022-12-17T20:25:47.067Z,5.65
2022-12-17T20:28:51.190Z,5.72
2022-12-17T20:31:55.362Z,5.65
2022-12-17T20:34:59.378Z,5.33
2022-12-17T20:38:02.924Z,5.52
2022-12-17T20:41:06.983Z,4.55
2022-12-17T20:44:10.831Z,4.95
2022-12-17T20:47:14.882Z,5.33
2022-12-17T20:50:18.872Z,5.44
2022-12-17T20:53:25.053Z,4.97
2022-12-17T20:56:29.007Z,5.17
2022-12-17T20:59:32.840Z,5.01
2022-12-17T21:02:37.256Z,5.22
2022-12-17T21:05:41.050Z,5.58
2022-12-17T21:08:49.688Z,5.61
2022-12-17T21:11:54.023Z,5.71
2022-12-17T21:14:58.987Z,5.71
2022-12-17T21:18:03.045Z,5.38
2022-12-17T21:21:07.277Z,5.66
2022-12-17T21:24:11.336Z,5.23
2022-12-17T21:27:15.375Z,5.04
2022-12-17T21:30:19.341Z,5.37
2022-12-17T21:33:23.878Z,5.34
2022-12-17T21:36:28.443Z,5.36
2022-12-17T21:39:32.614Z,5.29
2022-12-17T21:42:36.473Z,5.17
2022-12-17T21:45:40.248Z,5.35
2022-12-17T21:48:44.723Z,5.41
2022-12-17T21:51:48.866Z,5.72
2022-12-17T21:54:52.979Z,5.68
2022-12-17T21:57:57.017Z,5.69
2022-12-17T22:01:01.130Z,4.84
2022-12-17T22:04:05.391Z,5.03
2022-12-17T22:07:17.131Z,5.60
2022-12-17T22:10:38.004Z,5.33
2022-12-17T22:13:47.879Z,5.55
2022-12-17T22:16:51.918Z,5.21
2022-12-17T22:19:56.150Z,4.44
2022-12-17T22:23:00.503Z,4.37
2022-12-17T22:26:04.756Z,4.59
2022-12-17T22:29:08.853Z,5.21
2022-12-17T22:32:12.851Z,5.24
2022-12-17T22:37:16.922Z,5.42
2022-12-17T22:41:20.814Z,5.07
2022-12-17T22:44:49.259Z,4.77
2022-12-17T22:45:31.887Z,4.86
2022-12-17T22:48:36.020Z,5.12
2022-12-17T22:51:40.606Z,5.13
2022-12-17T22:54:45.557Z,5.19
2022-12-17T22:57:49.503Z,5.32
2022-12-17T23:00:53.445Z,5.32
2022-12-17T23:03:57.627Z,5.30
2022-12-17T23:07:01.767Z,4.62
2022-12-17T23:10:05.516Z,5.35
2022-12-17T23:13:09.508Z,5.17
2022-12-17T23:16:13.657Z,5.38
2022-12-17T23:19:18.129Z,5.36
2022-12-17T23:22:22.577Z,4.91
2022-12-17T23:25:26.437Z,4.80
2022-12-17T23:28:30.411Z,5.00
2022-12-17T23:31:34.718Z,5.13
2022-12-17T23:34:38.812Z,4.65
2022-12-17T23:37:42.823Z,4.65
2022-12-17T23:40:46.629Z,5.07
2022-12-17T23:43:50.615Z,5.28
2022-12-17T23:46:54.676Z,5.29
2022-12-17T23:49:58.423Z,5.34
2022-12-17T23:53:02.226Z,5.29
2022-12-17T23:56:06.517Z,5.19
2022-12-17T23:59:10.573Z,5.20
